Time;durP1;ratioP1;P1;durP2;ratioP2;P2;SDS_P1;SDS_P2;PMS_P1;PMS_P2;Temp;Humidity;BMP_temperature;BMP_pressure;BME280_temperature;BME280_humidity;BME280_pressure;Samples;Min_cycle;Max_cycle;Signal;HPM_P1;HPM_P2
2024/01/10 00:00:30;;;;;;;;;42.25;30.50;;;;;-0.09;63.18;102248.69;4977411;28;45401;-39
2024/01/10 00:02:56;;;;;;;;;47.75;37.50;;;;;-0.13;63.88;102239.22;4975811;28;45474;-39
2024/01/10 00:05:21;;;;;;;;;41.75;31.00;;;;;-0.15;63.84;102236.66;4978639;28;45350;-36
2024/01/10 00:07:46;;;;;;;;;42.50;35.00;;;;;-0.12;63.89;102241.81;4978438;28;46342;-38
2024/01/10 00:10:11;;;;;;;;;37.75;30.50;;;;;-0.13;63.83;102226.13;4978345;28;45522;-38
2024/01/10 00:12:37;;;;;;;;;54.75;38.00;;;;;-0.07;64.15;102239.91;4978563;28;45557;-39
2024/01/10 00:15:04;;;;;;;;;49.50;38.50;;;;;-0.20;63.90;102216.75;4978727;28;45477;-36
2024/01/10 00:17:30;;;;;;;;;38.75;35.75;;;;;-0.22;64.67;102211.56;4978271;28;46296;-37
2024/01/10 00:19:55;;;;;;;;;44.00;35.50;;;;;-0.04;64.27;102239.00;4978431;28;45522;-39
2024/01/10 00:22:21;;;;;;;;;39.50;33.25;;;;;-0.05;64.26;102240.72;4978123;28;45348;-35
2024/01/10 00:24:46;;;;;;;;;41.50;34.00;;;;;-0.06;64.23;102233.78;4978076;28;45184;-38
2024/01/10 00:27:11;;;;;;;;;40.25;31.50;;;;;0.00;63.99;102240.63;4978296;28;45371;-38
2024/01/10 00:29:37;;;;;;;;;37.00;32.00;;;;;0.02;64.45;102240.56;4978099;28;45188;-39
2024/01/10 00:32:02;;;;;;;;;48.25;34.75;;;;;-0.04;64.02;102229.38;4978298;28;45442;-39
2024/01/10 00:34:27;;;;;;;;;41.50;30.00;;;;;0.02;63.92;102236.19;4978273;28;45432;-38
2024/01/10 00:36:53;;;;;;;;;48.50;27.75;;;;;0.03;63.78;102223.97;4978087;28;45400;-40
2024/01/10 00:39:18;;;;;;;;;48.00;34.00;;;;;0.06;64.35;102226.50;4977983;28;45520;-39
2024/01/10 00:41:43;;;;;;;;;45.00;35.00;;;;;0.05;63.98;102233.50;4978005;28;45504;-39
2024/01/10 00:44:09;;;;;;;;;39.50;33.25;;;;;0.07;63.91;102230.81;4978160;28;45442;-39
2024/01/10 00:46:34;;;;;;;;;47.00;32.00;;;;;0.07;63.82;102223.81;4977662;28;46024;-37
2024/01/10 00:48:59;;;;;;;;;46.00;29.25;;;;;0.08;63.55;102227.31;4977891;28;45324;-39
2024/01/10 00:51:25;;;;;;;;;40.50;32.00;;;;;0.08;64.25;102232.53;4978021;28;45388;-39
2024/01/10 00:53:50;;;;;;;;;50.25;33.00;;;;;0.08;63.53;102233.38;4976674;28;45518;-40
2024/01/10 00:56:16;;;;;;;;;42.50;31.50;;;;;0.07;64.03;102231.69;4977393;28;46595;-37
2024/01/10 00:58:42;;;;;;;;;53.75;39.75;;;;;0.01;64.47;102216.16;4977889;28;45420;-37
2024/01/10 01:01:08;;;;;;;;;42.00;33.00;;;;;0.07;63.72;102226.44;4977849;28;45297;-39
2024/01/10 01:03:33;;;;;;;;;53.25;36.25;;;;;0.08;64.47;102219.44;4977756;28;45430;-38
2024/01/10 01:05:58;;;;;;;;;42.25;29.25;;;;;0.08;63.36;102220.31;4977345;28;49211;-39
2024/01/10 01:08:24;;;;;;;;;46.75;38.25;;;;;0.08;64.14;102219.44;4976221;28;45422;-40
2024/01/10 01:10:49;;;;;;;;;39.75;27.25;;;;;0.06;63.55;102211.66;4977583;28;45309;-39
2024/01/10 01:13:14;;;;;;;;;47.75;32.25;;;;;0.07;64.12;102217.75;4977899;28;45609;-38
2024/01/10 01:15:40;;;;;;;;;41.00;31.50;;;;;0.06;63.92;102209.03;4977408;28;45412;-37
2024/01/10 01:18:05;;;;;;;;;46.50;37.25;;;;;0.03;63.74;102209.13;4977531;28;45442;-35
2024/01/10 01:20:31;;;;;;;;;44.00;32.75;;;;;-0.06;63.71;102201.53;4976224;28;45485;-39
2024/01/10 01:22:56;;;;;;;;;42.75;35.00;;;;;0.01;64.37;102215.31;4977615;28;45269;-39
2024/01/10 01:25:22;;;;;;;;;47.75;35.50;;;;;-0.01;64.81;102215.34;4976979;28;45921;-38
2024/01/10 01:27:47;;;;;;;;;39.25;33.50;;;;;0.02;64.34;102210.03;4977245;28;45425;-37
2024/01/10 01:30:12;;;;;;;;;44.50;30.00;;;;;0.04;64.57;102213.44;4977506;28;45314;-39
2024/01/10 01:32:38;;;;;;;;;45.75;36.25;;;;;0.01;64.58;102208.31;4977441;28;45248;-39
2024/01/10 01:35:04;;;;;;;;;40.00;28.25;;;;;0.05;64.18;102215.19;4976590;28;45718;-38
2024/01/10 01:37:29;;;;;;;;;39.00;30.50;;;;;0.09;64.05;102213.34;4977097;28;45374;-39
2024/01/10 01:39:55;;;;;;;;;46.00;31.00;;;;;-0.06;64.62;102188.44;4976981;28;45358;-39
2024/01/10 01:42:20;;;;;;;;;52.00;29.75;;;;;-0.02;64.57;102185.69;4977333;28;45348;-38
2024/01/10 01:44:46;;;;;;;;;41.25;33.25;;;;;0.11;64.87;102214.13;4976827;28;47356;-37
2024/01/10 01:47:12;;;;;;;;;43.25;34.50;;;;;0.11;64.17;102215.00;4977107;28;45307;-39
2024/01/10 01:49:37;;;;;;;;;32.00;26.75;;;;;0.13;64.29;102212.34;4977114;28;45394;-38
2024/01/10 01:52:03;;;;;;;;;45.00;37.25;;;;;0.13;63.97;102217.59;4977103;28;45422;-38
2024/01/10 01:54:32;;;;;;;;;42.75;35.25;;;;;0.09;64.71;102206.34;4975376;28;48528;-39
2024/01/10 01:56:58;;;;;;;;;40.75;31.00;;;;;0.13;64.69;102212.34;4976819;28;45195;-40
2024/01/10 01:59:24;;;;;;;;;36.75;31.50;;;;;0.10;64.37;102215.91;4977062;28;45383;-39
2024/01/10 02:01:52;;;;;;;;;43.75;35.00;;;;;0.01;65.02;102191.75;4977079;28;45316;-37
2024/01/10 02:04:19;;;;;;;;;41.00;34.50;;;;;0.09;64.26;102198.50;4976591;28;45433;-38
2024/01/10 02:06:44;;;;;;;;;44.00;34.75;;;;;0.12;63.98;102208.84;4976825;28;45367;-38
2024/01/10 02:09:09;;;;;;;;;34.25;31.50;;;;;0.10;64.70;102200.19;4976791;28;45410;-39
2024/01/10 02:11:35;;;;;;;;;52.75;32.50;;;;;0.13;64.75;102201.88;4976918;28;45410;-37
2024/01/10 02:14:00;;;;;;;;;44.25;31.50;;;;;0.14;64.69;102206.22;4976490;28;45307;-39
2024/01/10 02:16:26;;;;;;;;;36.75;32.00;;;;;0.14;64.05;102203.59;4976390;28;45508;-39
2024/01/10 02:18:51;;;;;;;;;40.75;33.00;;;;;0.15;64.68;102207.91;4976769;28;45299;-39
2024/01/10 02:21:21;;;;;;;;;46.00;36.75;;;;;0.16;64.23;102205.25;4977014;28;45416;-38
2024/01/10 02:23:47;;;;;;;;;43.50;34.50;;;;;0.16;64.91;102207.84;4976345;28;47084;-39
2024/01/10 02:26:12;;;;;;;;;42.00;28.50;;;;;0.16;64.40;102201.78;4976419;28;45405;-39
2024/01/10 02:28:38;;;;;;;;;39.50;36.75;;;;;0.11;64.32;102185.34;4976410;28;45445;-39
2024/01/10 02:31:03;;;;;;;;;46.00;34.00;;;;;0.19;64.75;102197.31;4975545;28;45439;-39
2024/01/10 02:33:29;;;;;;;;;41.75;31.25;;;;;0.17;64.33;102196.53;4976210;28;47361;-39
2024/01/10 02:35:54;;;;;;;;;44.75;37.50;;;;;0.19;64.73;102199.94;4976590;28;45436;-38
2024/01/10 02:38:21;;;;;;;;;46.25;30.75;;;;;0.21;64.40;102200.75;4976429;28;45458;-38
2024/01/10 02:40:46;;;;;;;;;42.75;32.50;;;;;0.22;64.83;102193.75;4976322;28;45414;-39
2024/01/10 02:43:11;;;;;;;;;46.00;28.75;;;;;0.21;64.30;102195.53;4976422;28;46300;-40
2024/01/10 02:45:37;;;;;;;;;40.50;25.00;;;;;0.21;64.39;102187.69;4976149;28;45337;-39
2024/01/10 02:48:02;;;;;;;;;45.50;33.50;;;;;0.18;64.42;102186.91;4977690;28;45458;-39
2024/01/10 02:50:28;;;;;;;;;34.25;27.25;;;;;0.17;64.18;102193.91;4979930;28;45406;-39
2024/01/10 02:52:53;;;;;;;;;46.00;31.75;;;;;0.15;64.55;102187.84;4979719;28;46342;-39
2024/01/10 02:55:18;;;;;;;;;39.00;27.00;;;;;0.16;64.24;102180.84;4979669;28;45327;-39
2024/01/10 02:57:44;;;;;;;;;42.75;32.00;;;;;0.16;64.38;102184.31;4979793;28;45389;-39
2024/01/10 03:00:10;;;;;;;;;56.00;37.25;;;;;0.20;64.09;102187.69;4979739;28;45417;-39
2024/01/10 03:02:36;;;;;;;;;26.25;19.75;;;;;0.20;64.00;102172.84;4979718;28;46248;-37
2024/01/10 03:05:01;;;;;;;;;46.00;33.50;;;;;0.20;64.69;102180.69;4979108;28;49972;-38
2024/01/10 03:07:27;;;;;;;;;41.00;33.00;;;;;0.18;64.45;102179.91;4979497;28;45440;-39
2024/01/10 03:09:52;;;;;;;;;37.50;30.75;;;;;0.18;64.19;102185.13;4979712;28;45439;-38
2024/01/10 03:12:17;;;;;;;;;37.50;31.25;;;;;0.18;64.50;102186.91;4978789;28;47118;-39
2024/01/10 03:14:43;;;;;;;;;50.00;31.00;;;;;0.19;64.31;102179.00;4979526;28;45373;-38
2024/01/10 03:17:08;;;;;;;;;44.25;31.75;;;;;0.14;64.80;102182.66;4979421;28;45344;-38
2024/01/10 03:19:33;;;;;;;;;42.50;31.50;;;;;0.19;64.42;102189.47;4979324;28;45449;-39
2024/01/10 03:21:59;;;;;;;;;40.50;31.50;;;;;0.20;64.96;102183.31;4978939;28;45345;-39
2024/01/10 03:24:27;;;;;;;;;39.00;35.50;;;;;0.21;64.41;102187.69;4978849;28;45362;-39
2024/01/10 03:26:52;;;;;;;;;40.75;33.25;;;;;0.19;64.98;102175.53;4979146;28;45529;-39
2024/01/10 03:29:17;;;;;;;;;49.25;37.50;;;;;0.20;64.80;102172.84;4979570;28;45365;-39
2024/01/10 03:31:43;;;;;;;;;26.75;24.25;;;;;0.23;64.42;102171.91;4978997;28;46050;-38
2024/01/10 03:34:08;;;;;;;;;39.50;30.50;;;;;0.22;64.65;102175.44;4978834;28;47476;-39
2024/01/10 03:36:33;;;;;;;;;40.25;28.50;;;;;0.18;64.13;102166.81;4978895;28;45458;-38
2024/01/10 03:38:59;;;;;;;;;47.50;34.75;;;;;0.21;64.75;102171.97;4979217;28;45244;-38
2024/01/10 03:41:24;;;;;;;;;38.50;23.50;;;;;0.17;64.98;102154.66;4978475;28;46099;-39
2024/01/10 03:43:50;;;;;;;;;28.25;23.00;;;;;0.24;64.15;102168.38;4979056;28;45236;-39
2024/01/10 03:46:15;;;;;;;;;39.75;34.50;;;;;0.23;64.42;102162.31;4978715;28;45363;-39
2024/01/10 03:48:47;;;;;;;;;42.50;27.75;;;;;0.18;64.51;102158.97;4979058;28;45533;-39
2024/01/10 03:51:17;;;;;;;;;47.75;36.50;;;;;0.28;64.91;102167.41;4978897;28;46988;-39
2024/01/10 03:53:42;;;;;;;;;33.50;28.50;;;;;0.29;64.43;102166.47;4978765;28;45469;-39
2024/01/10 03:56:08;;;;;;;;;44.75;26.75;;;;;0.29;64.03;102168.25;4978935;28;45428;-39
2024/01/10 03:58:33;;;;;;;;;41.00;29.50;;;;;0.27;64.11;102164.84;4978443;28;45523;-38
2024/01/10 04:00:59;;;;;;;;;56.00;36.75;;;;;0.24;63.71;102164.00;4978426;28;46126;-40
2024/01/10 04:03:24;;;;;;;;;21.25;21.25;;;;;0.22;64.12;102171.06;4978626;28;45355;-38
2024/01/10 04:05:49;;;;;;;;;29.75;23.50;;;;;0.17;64.17;102174.69;4978554;28;45303;-38
2024/01/10 04:08:15;;;;;;;;;28.50;25.00;;;;;0.17;63.73;102178.19;4978744;28;45390;-36
2024/01/10 04:10:40;;;;;;;;;40.75;30.50;;;;;0.16;64.29;102178.22;4977895;28;46173;-37
2024/01/10 04:13:06;;;;;;;;;41.50;30.75;;;;;0.16;64.14;102173.00;4977175;28;45525;-38
2024/01/10 04:15:31;;;;;;;;;45.00;35.75;;;;;0.14;64.13;102167.81;4978483;28;45450;-38
2024/01/10 04:17:56;;;;;;;;;34.25;26.75;;;;;0.17;63.76;102170.34;4978736;28;45495;-36
2024/01/10 04:20:22;;;;;;;;;35.75;28.00;;;;;0.17;63.41;102167.72;4978207;28;46634;-38
2024/01/10 04:22:47;;;;;;;;;37.00;29.75;;;;;0.17;63.91;102156.38;4978423;28;45224;-39
2024/01/10 04:25:12;;;;;;;;;41.75;35.50;;;;;0.16;63.71;102155.53;4978290;28;45293;-38
2024/01/10 04:27:38;;;;;;;;;47.00;32.50;;;;;0.14;63.62;102146.88;4978385;28;45393;-38
2024/01/10 04:30:04;;;;;;;;;45.75;30.25;;;;;0.15;64.15;102151.19;4978042;28;46108;-36
2024/01/10 04:32:29;;;;;;;;;44.25;33.00;;;;;0.18;63.92;102138.03;4978039;28;45445;-38
2024/01/10 04:34:55;;;;;;;;;42.75;29.00;;;;;0.21;64.21;102147.53;4978326;28;45802;-39
2024/01/10 04:37:20;;;;;;;;;33.75;31.50;;;;;0.22;63.85;102144.03;4976807;28;45534;-38
2024/01/10 04:39:45;;;;;;;;;35.00;30.00;;;;;0.20;63.54;102136.22;4977799;28;49203;-39
2024/01/10 04:42:11;;;;;;;;;34.25;32.25;;;;;0.24;63.82;102142.22;4977798;28;45266;-38
2024/01/10 04:44:37;;;;;;;;;51.50;33.50;;;;;0.24;64.06;102147.44;4977884;28;45333;-39
2024/01/10 04:47:02;;;;;;;;;39.50;33.00;;;;;0.24;63.74;102131.75;4978295;28;45394;-37
2024/01/10 04:49:28;;;;;;;;;35.00;32.50;;;;;0.26;63.28;102142.19;4977693;28;47065;-38
2024/01/10 04:51:53;;;;;;;;;37.50;32.00;;;;;0.28;63.76;102148.22;4978051;28;45291;-38
2024/01/10 04:54:19;;;;;;;;;34.25;30.75;;;;;0.29;63.66;102139.47;4977755;28;45401;-34
2024/01/10 04:56:44;;;;;;;;;46.00;35.00;;;;;0.28;63.73;102137.75;4977979;28;45422;-38
2024/01/10 04:59:10;;;;;;;;;43.75;30.50;;;;;0.14;63.54;102107.63;4977568;28;46923;-37
2024/01/10 05:01:36;;;;;;;;;33.00;24.00;;;;;0.29;64.12;102127.22;4977459;28;45387;-38
2024/01/10 05:04:02;;;;;;;;;47.50;31.00;;;;;0.33;63.92;102135.84;4977759;28;45347;-37
2024/01/10 05:06:27;;;;;;;;;52.75;33.00;;;;;0.34;63.64;102127.09;4977753;28;45281;-39
2024/01/10 05:08:57;;;;;;;;;42.25;32.50;;;;;0.34;63.57;102129.69;4977526;28;45554;-38
2024/01/10 05:11:23;;;;;;;;;39.50;30.75;;;;;0.34;63.24;102129.69;4975123;28;45456;-35
2024/01/10 05:13:48;;;;;;;;;40.00;28.75;;;;;0.35;63.76;102129.66;4977585;28;45319;-38
2024/01/10 05:16:13;;;;;;;;;37.25;29.00;;;;;0.36;63.82;102128.75;4977729;28;45544;-39
2024/01/10 05:18:38;;;;;;;;;49.25;38.50;;;;;0.35;63.99;102126.19;4977242;28;45334;-39
2024/01/10 05:21:04;;;;;;;;;37.75;30.50;;;;;0.36;63.56;102123.53;4977350;28;45292;-37
2024/01/10 05:23:29;;;;;;;;;36.50;33.00;;;;;0.33;63.87;102117.53;4977380;28;45374;-38
2024/01/10 05:25:55;;;;;;;;;41.00;24.00;;;;;0.28;63.81;102106.34;4977529;28;45409;-38
2024/01/10 05:28:21;;;;;;;;;40.00;30.50;;;;;0.42;63.66;102127.69;4976673;28;46028;-38
2024/01/10 05:30:46;;;;;;;;;46.00;27.00;;;;;0.43;63.26;102126.81;4977152;28;45368;-38
2024/01/10 05:33:11;;;;;;;;;37.25;27.75;;;;;0.42;63.64;102130.31;4977241;28;45473;-39
2024/01/10 05:35:39;;;;;;;;;50.25;35.50;;;;;0.43;63.37;102130.28;4977220;28;45353;-38
2024/01/10 05:38:05;;;;;;;;;43.25;32.00;;;;;0.42;63.48;102128.59;4977078;28;46108;-38
2024/01/10 05:40:31;;;;;;;;;47.75;38.00;;;;;0.43;63.74;102126.81;4976869;28;46067;-39
2024/01/10 05:42:57;;;;;;;;;46.00;34.25;;;;;0.42;63.48;102122.47;4977088;28;45388;-39
2024/01/10 05:45:22;;;;;;;;;36.25;30.75;;;;;0.41;63.04;102126.00;4977322;28;45473;-38
2024/01/10 05:47:48;;;;;;;;;40.50;30.75;;;;;0.41;63.68;102128.63;4976854;28;48218;-38
2024/01/10 05:50:14;;;;;;;;;34.25;26.75;;;;;0.23;63.13;102103.88;4976968;28;45478;-39
2024/01/10 05:52:39;;;;;;;;;34.00;27.50;;;;;0.39;63.16;102128.69;4977067;28;45478;-38
2024/01/10 05:55:06;;;;;;;;;43.75;38.50;;;;;0.27;63.59;102108.13;4977139;28;45373;-37
2024/01/10 05:57:32;;;;;;;;;33.50;30.50;;;;;0.36;63.41;102125.28;4976555;28;45452;-39
2024/01/10 05:59:57;;;;;;;;;50.00;32.75;;;;;0.24;63.41;102114.28;4976848;28;45232;-37
2024/01/10 06:02:24;;;;;;;;;50.75;31.50;;;;;0.34;63.67;102124.47;4976931;28;45372;-39
2024/01/10 06:04:49;;;;;;;;;38.00;27.50;;;;;0.34;63.67;102124.47;4977205;28;45451;-39
2024/01/10 06:07:15;;;;;;;;;38.75;32.00;;;;;0.35;63.44;102126.19;4976683;28;45277;-36
2024/01/10 06:09:40;;;;;;;;;41.50;30.75;;;;;0.34;63.74;102120.13;4976666;28;45449;-36
2024/01/10 06:12:06;;;;;;;;;41.75;22.50;;;;;0.35;63.45;102116.59;4976391;28;45381;-38
2024/01/10 06:14:32;;;;;;;;;24.75;24.00;;;;;0.40;63.73;102127.75;4976803;28;45361;-38
2024/01/10 06:16:59;;;;;;;;;45.25;32.25;;;;;0.41;63.50;102126.00;4975546;28;46180;-37
2024/01/10 06:19:25;;;;;;;;;48.75;34.00;;;;;0.26;64.21;102095.94;4976516;28;45331;-38
2024/01/10 06:21:51;;;;;;;;;38.00;24.00;;;;;0.42;63.36;102125.09;4976450;28;45345;-36
2024/01/10 06:24:17;;;;;;;;;40.25;32.00;;;;;0.40;63.05;102116.44;4976630;28;45410;-39
2024/01/10 06:26:42;;;;;;;;;37.25;23.75;;;;;0.44;63.55;102118.06;4976396;28;46137;-39
2024/01/10 06:29:08;;;;;;;;;27.00;15.00;;;;;0.43;62.82;102116.34;4976431;28;45335;-37
2024/01/10 06:31:33;;;;;;;;;27.75;25.25;;;;;0.39;63.35;102109.50;4976516;28;45752;-39
2024/01/10 06:33:59;;;;;;;;;29.25;26.00;;;;;0.41;62.93;102112.91;4976641;28;45469;-35
2024/01/10 06:36:24;;;;;;;;;35.50;30.00;;;;;0.43;63.34;102111.97;4976202;28;46231;-36
2024/01/10 06:38:49;;;;;;;;;39.50;32.00;;;;;0.41;63.13;102110.28;4974902;28;45337;-38
2024/01/10 06:41:15;;;;;;;;;43.00;34.00;;;;;0.45;62.58;102106.69;4976562;28;45323;-35
2024/01/10 06:43:40;;;;;;;;;32.25;27.75;;;;;0.46;62.66;102111.00;4976270;28;45363;-38
2024/01/10 06:46:06;;;;;;;;;33.00;27.25;;;;;0.48;61.76;102104.81;4974395;28;46039;-38
2024/01/10 06:48:31;;;;;;;;;30.00;25.50;;;;;0.49;62.32;102097.81;4975981;28;45318;-40
2024/01/10 06:50:57;;;;;;;;;32.50;24.75;;;;;0.50;61.67;102107.38;4976035;28;45269;-36
2024/01/10 06:53:23;;;;;;;;;44.00;29.75;;;;;0.48;61.86;102104.81;4976412;28;45921;-36
2024/01/10 06:55:48;;;;;;;;;42.25;33.00;;;;;0.50;61.22;102112.63;4975732;28;46059;-39
2024/01/10 06:58:13;;;;;;;;;31.00;26.75;;;;;0.46;61.02;102108.38;4975459;28;48204;-39
2024/01/10 07:00:39;;;;;;;;;36.00;24.75;;;;;0.48;61.23;102107.44;4976047;28;45326;-38
2024/01/10 07:03:04;;;;;;;;;41.25;26.00;;;;;0.48;61.11;102111.81;4975975;28;45434;-37
2024/01/10 07:05:31;;;;;;;;;34.75;28.50;;;;;0.49;60.84;102110.91;4975493;28;46896;-38
2024/01/10 07:07:57;;;;;;;;;45.75;28.00;;;;;0.50;60.83;102110.84;4975589;28;45329;-38
2024/01/10 07:10:27;;;;;;;;;41.25;28.25;;;;;0.50;60.45;102115.22;4975754;28;45353;-38
2024/01/10 07:12:53;;;;;;;;;23.75;15.25;;;;;0.50;61.30;102113.47;4975706;28;46076;-38
2024/01/10 07:15:18;;;;;;;;;40.75;31.25;;;;;0.49;60.44;102110.91;4975590;28;46107;-38
2024/01/10 07:17:43;;;;;;;;;36.75;24.25;;;;;0.56;60.28;102120.28;4975171;28;51882;-38
2024/01/10 07:20:11;;;;;;;;;33.00;25.50;;;;;0.59;60.41;102122.81;4975670;28;45382;-39
2024/01/10 07:22:39;;;;;;;;;28.50;22.25;;;;;0.61;60.13;102123.63;4975824;28;45499;-38
2024/01/10 07:25:05;;;;;;;;;24.50;19.00;;;;;0.63;61.05;102120.94;4975517;28;47003;-37
2024/01/10 07:27:31;;;;;;;;;34.25;26.50;;;;;0.63;59.94;102126.16;4975600;28;45184;-38
2024/01/10 07:29:57;;;;;;;;;27.50;22.00;;;;;0.65;59.95;102129.63;4976033;28;45324;-38
2024/01/10 07:32:23;;;;;;;;;34.50;27.25;;;;;0.65;60.09;102130.47;4975984;28;45542;-38
2024/01/10 07:34:48;;;;;;;;;31.75;27.75;;;;;0.66;60.00;102131.31;4977961;28;46619;-36
2024/01/10 07:37:16;;;;;;;;;30.50;24.00;;;;;0.63;59.99;102126.16;4979165;28;45465;-38
2024/01/10 07:39:42;;;;;;;;;33.00;22.00;;;;;0.65;60.12;102120.00;4977582;28;45319;-38
2024/01/10 07:42:07;;;;;;;;;29.50;24.25;;;;;0.65;60.49;102127.84;4979277;28;45394;-37
2024/01/10 07:44:33;;;;;;;;;29.50;24.25;;;;;0.64;59.53;102131.38;4978817;28;45481;-38
2024/01/10 07:46:58;;;;;;;;;35.50;26.25;;;;;0.66;59.25;102131.31;4977412;28;45470;-38
2024/01/10 07:49:24;;;;;;;;;28.00;23.00;;;;;0.67;60.05;102128.63;4979028;28;45268;-38
2024/01/10 07:51:50;;;;;;;;;27.00;25.25;;;;;0.62;59.93;102121.84;4979056;28;45389;-37
2024/01/10 07:54:15;;;;;;;;;44.50;26.50;;;;;0.62;58.85;102127.94;4978675;28;46398;-38
2024/01/10 07:56:41;;;;;;;;;38.75;26.00;;;;;0.64;59.66;102130.53;4978673;28;45710;-38
2024/01/10 07:59:06;;;;;;;;;22.00;19.00;;;;;0.65;59.59;102137.47;4978675;28;45231;-38
2024/01/10 08:01:32;;;;;;;;;36.25;29.00;;;;;0.63;58.79;102136.66;4979019;28;45374;-38
2024/01/10 08:03:57;;;;;;;;;29.50;25.75;;;;;0.62;59.37;102133.19;4978490;28;46098;-39
2024/01/10 08:06:23;;;;;;;;;29.00;22.25;;;;;0.64;59.44;102141.00;4978422;28;45446;-34
2024/01/10 08:08:48;;;;;;;;;30.25;21.25;;;;;0.67;59.36;102143.50;4978737;28;45440;-38
2024/01/10 08:11:14;;;;;;;;;30.50;25.25;;;;;0.66;58.92;102147.03;4979007;28;45401;-38
2024/01/10 08:13:40;;;;;;;;;30.25;23.50;;;;;0.67;59.71;102141.72;4978395;28;46194;-38
2024/01/10 08:16:08;;;;;;;;;35.00;24.00;;;;;0.70;59.06;102146.03;4978380;28;45442;-38
2024/01/10 08:18:34;;;;;;;;;30.00;21.25;;;;;0.68;59.18;102140.00;4978236;28;45411;-37
2024/01/10 08:20:59;;;;;;;;;36.50;27.50;;;;;0.70;58.91;102141.66;4978485;28;45229;-39
2024/01/10 08:23:25;;;;;;;;;34.25;24.75;;;;;0.72;59.32;102152.94;4977978;28;47094;-39
2024/01/10 08:25:50;;;;;;;;;36.75;32.50;;;;;0.72;58.65;102144.22;4977989;28;45381;-38
2024/01/10 08:28:16;;;;;;;;;29.00;21.50;;;;;0.77;58.80;102149.31;4978322;28;45316;-37
2024/01/10 08:30:41;;;;;;;;;28.25;25.00;;;;;0.77;58.90;102146.72;4978524;28;45471;-39
2024/01/10 08:33:07;;;;;;;;;30.25;24.75;;;;;0.81;58.84;102151.78;4978079;28;47110;-38
2024/01/10 08:35:32;;;;;;;;;25.00;20.00;;;;;0.85;58.58;102158.66;4978088;28;45571;-35
2024/01/10 08:37:57;;;;;;;;;30.75;24.50;;;;;0.85;59.15;102153.41;4978462;28;45350;-35
2024/01/10 08:40:25;;;;;;;;;30.75;26.50;;;;;0.90;58.85;102159.34;4978024;28;45496;-39
2024/01/10 08:42:51;;;;;;;;;34.50;24.75;;;;;0.89;58.47;102154.16;4976715;28;48422;-37
2024/01/10 08:45:17;;;;;;;;;30.25;25.50;;;;;0.91;59.00;102168.06;4976832;28;45396;-39
2024/01/10 08:47:43;;;;;;;;;38.75;19.00;;;;;0.86;58.99;102151.63;4978021;28;45311;-39
2024/01/10 08:50:08;;;;;;;;;32.25;29.25;;;;;0.88;58.11;102160.28;4978337;28;46072;-40
2024/01/10 08:52:37;;;;;;;;;23.00;19.00;;;;;0.78;59.08;102145.78;4977780;28;46910;-38
2024/01/10 08:55:04;;;;;;;;;25.25;18.50;;;;;0.85;58.70;102163.88;4977952;28;45262;-39
2024/01/10 08:57:30;;;;;;;;;37.50;25.25;;;;;0.88;58.49;102162.91;4978153;28;45263;-39
2024/01/10 08:59:55;;;;;;;;;35.50;28.75;;;;;0.86;58.47;102165.59;4977965;28;45323;-37
2024/01/10 09:02:20;;;;;;;;;36.00;24.00;;;;;0.90;59.08;102168.97;4977459;28;46973;-36
2024/01/10 09:04:46;;;;;;;;;45.50;31.25;;;;;0.89;58.61;102165.50;4977805;28;45437;-40
2024/01/10 09:07:11;;;;;;;;;38.50;34.50;;;;;0.85;58.75;102163.03;4977608;28;45409;-38
2024/01/10 09:09:37;;;;;;;;;27.25;19.75;;;;;0.92;58.97;102177.63;4977980;28;45280;-38
2024/01/10 09:12:03;;;;;;;;;34.00;26.25;;;;;0.93;58.56;102168.88;4977295;28;52829;-37
2024/01/10 09:14:28;;;;;;;;;41.50;28.00;;;;;0.95;58.50;102165.28;4977399;28;45445;-40
2024/01/10 09:16:54;;;;;;;;;39.50;34.75;;;;;0.96;58.74;102166.13;4977743;28;45423;-39
2024/01/10 09:19:19;;;;;;;;;30.75;24.75;;;;;0.99;58.54;102160.81;4977701;28;45448;-39
2024/01/10 09:21:45;;;;;;;;;43.00;28.00;;;;;1.03;58.17;102165.03;4977799;28;45330;-38
2024/01/10 09:24:14;;;;;;;;;34.50;29.50;;;;;1.05;58.33;102168.44;4976188;28;45378;-38
2024/01/10 09:26:40;;;;;;;;;29.50;22.25;;;;;1.09;58.77;102166.59;4977414;28;45410;-37
2024/01/10 09:29:06;;;;;;;;;32.00;24.50;;;;;1.13;58.31;102171.69;4977545;28;45342;-36
2024/01/10 09:31:31;;;;;;;;;39.25;28.50;;;;;1.17;58.00;102177.69;4977147;28;47157;-38
2024/01/10 09:33:57;;;;;;;;;39.25;26.00;;;;;1.19;58.22;102181.97;4977515;28;45510;-38
2024/01/10 09:36:22;;;;;;;;;27.50;23.50;;;;;1.20;58.14;102173.19;4977175;28;45328;-37
2024/01/10 09:38:47;;;;;;;;;45.25;32.00;;;;;1.23;57.78;102177.50;4977472;28;45585;-38
2024/01/10 09:41:14;;;;;;;;;32.50;26.50;;;;;1.27;57.66;102181.72;4976729;28;51512;-38
2024/01/10 09:43:40;;;;;;;;;36.50;27.00;;;;;1.30;58.02;102178.97;4976864;28;45387;-35
2024/01/10 09:46:07;;;;;;;;;37.00;29.75;;;;;1.33;57.94;102180.66;4977198;28;45354;-38
2024/01/10 09:48:33;;;;;;;;;33.25;27.00;;;;;1.36;57.56;102181.41;4977288;28;45339;-38
2024/01/10 09:50:59;;;;;;;;;34.00;30.50;;;;;1.33;57.90;102173.63;4976949;28;46496;-38
2024/01/10 09:53:31;;;;;;;;;26.75;22.00;;;;;1.37;58.04;102177.00;4977122;28;45283;-38
2024/01/10 09:55:56;;;;;;;;;30.50;24.00;;;;;1.38;57.85;102190.06;4976810;28;45319;-38
2024/01/10 09:58:25;;;;;;;;;31.25;20.75;;;;;1.31;56.88;102185.97;4976869;28;45427;-38
2024/01/10 10:00:50;;;;;;;;;35.00;27.75;;;;;1.31;57.05;102185.97;4976767;28;47311;-38
2024/01/10 10:03:18;;;;;;;;;38.25;29.00;;;;;1.27;56.46;102178.25;4976889;28;45437;-38
2024/01/10 10:05:43;;;;;;;;;25.00;23.75;;;;;1.33;56.21;102186.75;4976574;28;45536;-39
2024/01/10 10:08:11;;;;;;;;;32.75;24.00;;;;;1.36;56.62;102175.31;4977226;28;45234;-39
2024/01/10 10:10:42;;;;;;;;;36.50;29.50;;;;;1.38;55.83;102183.97;4976649;28;46125;-38
2024/01/10 10:13:10;;;;;;;;;35.00;26.00;;;;;1.42;57.00;102180.31;4976719;28;45418;-36
2024/01/10 10:15:36;;;;;;;;;27.25;21.50;;;;;1.47;56.52;102183.66;4976698;28;45362;-38
2024/01/10 10:18:02;;;;;;;;;29.50;21.75;;;;;1.48;56.61;102186.22;4976688;28;45423;-38
2024/01/10 10:20:38;;;;;;;;;35.50;27.50;;;;;1.49;55.24;102179.22;4976535;28;45371;-38
2024/01/10 10:23:06;;;;;;;;;32.75;24.25;;;;;1.52;56.37;102176.50;4976434;28;45480;-38
2024/01/10 10:25:34;;;;;;;;;26.00;21.25;;;;;1.55;55.66;102176.38;4976526;28;45267;-38
2024/01/10 10:28:02;;;;;;;;;29.25;27.25;;;;;1.59;55.14;102175.34;4976740;28;45398;-34
2024/01/10 10:30:30;;;;;;;;;33.00;25.50;;;;;1.55;55.16;102149.28;4976155;28;45922;-38
2024/01/10 10:32:55;;;;;;;;;36.00;23.50;;;;;1.71;54.62;102169.66;4976120;28;45255;-39
2024/01/10 10:35:21;;;;;;;;;23.75;20.75;;;;;1.73;55.63;102178.38;4976479;28;45331;-39
2024/01/10 10:37:49;;;;;;;;;30.25;23.75;;;;;1.75;55.49;102170.44;4976578;28;45507;-38
2024/01/10 10:40:15;;;;;;;;;30.75;25.00;;;;;1.74;54.49;102174.81;4976214;28;45300;-38
2024/01/10 10:42:45;;;;;;;;;27.00;24.50;;;;;1.80;55.26;102163.22;4976153;28;45530;-38
2024/01/10 10:45:14;;;;;;;;;25.00;20.75;;;;;1.84;55.33;102166.59;4976347;28;45465;-40
2024/01/10 10:47:44;;;;;;;;;50.75;30.25;;;;;1.84;54.24;102148.25;4976560;28;45376;-39
2024/01/10 10:50:14;;;;;;;;;35.25;25.25;;;;;1.96;54.79;102163.53;4976143;28;46263;-39
2024/01/10 10:52:44;;;;;;;;;28.50;28.00;;;;;2.03;54.75;102154.53;4976126;28;45406;-38
2024/01/10 10:55:13;;;;;;;;;30.75;21.75;;;;;2.07;55.20;102156.13;4976373;28;45388;-38
2024/01/10 10:57:42;;;;;;;;;35.50;28.00;;;;;2.08;54.14;102157.84;4976417;28;45454;-39
2024/01/10 11:00:10;;;;;;;;;31.25;26.00;;;;;2.12;54.34;102167.31;4975865;28;47244;-39
2024/01/10 11:02:37;;;;;;;;;32.25;20.00;;;;;2.18;54.47;102161.81;4975954;28;45405;-35
2024/01/10 11:05:04;;;;;;;;;24.00;20.50;;;;;2.21;54.21;102155.59;4976333;28;45338;-39
2024/01/10 11:07:30;;;;;;;;;31.50;28.25;;;;;2.20;53.65;102153.91;4975595;28;45485;-39
2024/01/10 11:09:59;;;;;;;;;9.00;0.00;;;;;2.25;53.83;102149.31;4978528;28;46170;-39